Lewistown, Montana
Current Conditions -  °F | °C
As of 10:54 PM on Saturday 25 Oct 2014 (Local Time) from KLWT Reporting Station
Clear Clear  
Wind Chill: 12°   Ceiling: Unl
Heat Index: 12°   Visibility: 10mi
Dew Point:   Wind: 7mph
Humidity: 48%   Direction: 140°SE
Pressure: 29.66"   Gusts: NA
Location:  47.07°N, 109.42°W
Report Text: KLWT 260454Z AUTO 14006KT 10SM CLR 12/01 A2966 RMK AO2 SLP025 T01170011
Loading
Personal Weather Stations






























Interactive Weather Map
Tropical Storm Tracking
New forecast layout! Learn more

10-Day Weather Forecast

Advertisements
Track Severe Weather on mobile